Sacramento, CA (94234)

9:33 AM PDT on October 25, 2014 (GMT -0700)
MIDTOWN | Change Station
CLOSE
Current Station
Personal Weather Station
Location: SACRAMENTO, CA
Elevation: 24 ft
Nearby Weather Stations
Active Advisory: Wind Advisory

Elev 24 ft 38.57 °N, 121.48 °W | Updated 12 seconds ago

Overcast
Overcast
55.4 °F
Feels Like 55.4 °F
N
1.8
Wind Variable Wind from South
Gusts 2.5 mph

Today
High -- | Low -- °F
--% Chance of Precip.
Yesterday
High -- | Low -- °F
Precip. -- in
7:25 AM 6:14 PM
Waxing Crescent, 3% visible
Pressure 30.01 in
Visibility 10.0 miles
Clouds Mostly Cloudy 4700 ft
Overcast 5500 ft
Dew Point 54 °F
Humidity 95%
Rainfall 0.07 in
Snow Depth Not available.
UV 0.0 out of 12
Pollen 2.40 out of 12
Ozone Good
PM2.5 Good
Flu Activity Sporadic
METAR KSAC 251553Z 16006KT 10SM BKN047 OVC055 16/14 A3000 RMK AO2 RAE36 SLP160 P0007 T01560139

More Conditions Fewer Conditions

Pressure 30.01 in
Visibility 10.0 miles
Clouds Mostly Cloudy 4700 ft
Overcast 5500 ft
Dew Point 54 °F
Humidity 95%
Rainfall 0.07 in
Snow Depth Not available.
UV 0.0 out of 12
Pollen 2.40 out of 12
Ozone Good
PM2.5 Good
Flu Activity Sporadic
METAR KSAC 251553Z 16006KT 10SM BKN047 OVC055 16/14 A3000 RMK AO2 RAE36 SLP160 P0007 T01560139

More Conditions Fewer Conditions

10-Day Weather Forecast

Almanac

Astronomy

Oct. 25, 2014 Rise Set
Actual Time 7:25 AM PDT 6:14 PM PDT
Civil Twilight 6:58 AM PDT 6:41 PM PDT
Nautical Twilight 6:27 AM PDT 7:12 PM PDT
Astronomical Twilight 5:56 AM PDT 7:43 PM PDT
Moon 9:08 AM PDT 7:42 PM PDT
Length of Visible Light 11h 43m
Length of Day
10h 48m
Tomorrow will be 2m 17s shorter.
Waxing Crescent, 3% of the Moon is Illuminated
Today
Waxing Crescent
Oct 30
First Quarter
Nov 6
Full
Nov 14
Last Quarter
Nov 22
New

Today's Extremes

State Highs State Lows

Community

WunderPhotos

Upload Photos

1,764,899 photos uploaded!

Nearby

Air Quality

  Air Quality AQ Index Pollutant
Yesterday Good
OZONE
Yesterday Good
PM10
Current Good
OZONE
Current Good
PM2.5
Saturday Good
OZONE
Sunday Good
OZONE
Monday Good
OZONE
Tuesday Good
OZONE
Wednesday Good
OZONE

Snow Depth

Station Depth Elevation
Squaw Valley 0 in 8200 ft
Rubicon #2 1 in 7500 ft
Echo Peak 1 in 7800 ft
CSS Lab 1 in 6900 ft
Fallen Leaf 0 in 6300 ft

Earthquake Activity

City Distance Mag. Time & Date
Antioch, California 39 miles 2.7 6:42 AM PDT
2014-10-25
Deer Park, California 52 miles 2.8 6:40 AM PDT
2014-10-25
Gerlach-Empire, Nevada 151 miles 2.5 7:16 AM PDT
2014-10-23
Minimum magnitude displayed is 2.5.

Coastal Water Temperatures

Place Temperature
No Stations Reporting

Nearby Weather Stations